Time;durP1;ratioP1;P1;durP2;ratioP2;P2;SDS_P1;SDS_P2;PMS_P1;PMS_P2;Temp;Humidity;BMP_temperature;BMP_pressure;BME280_temperature;BME280_humidity;BME280_pressure;Samples;Min_cycle;Max_cycle;Signal;HPM_P1;HPM_P2
2023/06/22 00:00:58;;;;;;;16.25;10.20;;;17.60;99.90;;;;;;5114756;28;20031;-84
2023/06/22 00:03:25;;;;;;;16.25;10.68;;;17.60;99.90;;;;;;5165891;27;20505;-84
2023/06/22 00:05:52;;;;;;;14.80;10.57;;;17.60;99.90;;;;;;5118424;27;20043;-84
2023/06/22 00:08:20;;;;;;;16.65;10.95;;;17.80;99.90;;;;;;5147751;27;20100;-84
2023/06/22 00:10:46;;;;;;;15.23;10.35;;;17.50;99.90;;;;;;5145731;27;20038;-84
2023/06/22 00:13:14;;;;;;;18.20;10.63;;;17.50;99.90;;;;;;5137605;27;20041;-84
2023/06/22 00:15:41;;;;;;;17.40;10.70;;;17.50;99.90;;;;;;5151670;27;20491;-84
2023/06/22 00:18:10;;;;;;;17.67;11.02;;;17.50;99.90;;;;;;5152175;27;20031;-84
2023/06/22 00:20:37;;;;;;;15.18;11.05;;;17.40;99.90;;;;;;5135139;27;20050;-84
2023/06/22 00:23:08;;;;;;;17.90;11.35;;;17.40;99.90;;;;;;5117602;27;20039;-84
2023/06/22 00:25:41;;;;;;;16.65;12.05;;;17.40;99.90;;;;;;5152138;27;20832;-84
2023/06/22 00:28:09;;;;;;;15.85;11.05;;;17.30;99.90;;;;;;5151365;27;20122;-83
2023/06/22 00:30:36;;;;;;;16.77;11.70;;;17.30;99.90;;;;;;5134419;27;20410;-84
2023/06/22 00:33:03;;;;;;;16.77;11.60;;;17.30;99.90;;;;;;5151042;27;20097;-84
2023/06/22 00:35:29;;;;;;;18.00;12.30;;;17.20;99.90;;;;;;5150823;27;20086;-84
2023/06/22 00:38:04;;;;;;;17.30;12.57;;;17.20;99.90;;;;;;5151261;27;20047;-83
2023/06/22 00:40:32;;;;;;;18.17;11.80;;;17.20;99.90;;;;;;5119478;27;20031;-83
2023/06/22 00:42:59;;;;;;;18.58;12.02;;;17.20;99.90;;;;;;5134530;27;20281;-84
2023/06/22 00:45:26;;;;;;;18.38;12.30;;;17.20;99.90;;;;;;5150509;27;20102;-84
2023/06/22 00:47:56;;;;;;;20.23;12.88;;;17.20;99.90;;;;;;5151329;27;20045;-84
2023/06/22 00:50:25;;;;;;;18.75;13.27;;;17.20;99.90;;;;;;5134434;27;20140;-83
2023/06/22 00:52:56;;;;;;;18.25;13.40;;;17.10;99.90;;;;;;5151485;27;20076;-83
2023/06/22 00:55:23;;;;;;;22.65;15.23;;;17.10;99.90;;;;;;5150917;27;20061;-84
2023/06/22 00:57:50;;;;;;;21.17;12.70;;;17.10;99.90;;;;;;5151108;27;20075;-84
2023/06/22 01:00:19;;;;;;;20.83;13.55;;;17.10;99.90;;;;;;5117173;27;20072;-84
2023/06/22 01:02:46;;;;;;;22.70;13.90;;;17.00;99.90;;;;;;5151453;27;20035;-84
2023/06/22 01:05:14;;;;;;;20.90;12.52;;;17.00;99.90;;;;;;5116845;27;20066;-84
2023/06/22 01:07:52;;;;;;;19.33;13.20;;;17.00;99.90;;;;;;5167736;27;20070;-84
2023/06/22 01:10:28;;;;;;;22.80;13.73;;;17.00;99.90;;;;;;5150456;27;20035;-84
2023/06/22 01:13:04;;;;;;;21.00;13.45;;;16.90;99.90;;;;;;5158136;27;20087;-84
2023/06/22 01:15:43;;;;;;;18.92;12.13;;;16.90;99.90;;;;;;5170965;27;20038;-83
2023/06/22 01:18:12;;;;;;;18.85;12.30;;;16.90;99.90;;;;;;5161380;27;20406;-84
2023/06/22 01:20:39;;;;;;;20.52;13.23;;;16.90;99.90;;;;;;5146283;27;20043;-84
2023/06/22 01:23:21;;;;;;;21.10;12.70;;;16.90;99.90;;;;;;5154248;27;20027;-83
2023/06/22 01:25:54;;;;;;;19.17;13.55;;;16.80;99.90;;;;;;5171216;27;20039;-84
2023/06/22 01:28:49;;;;;;;16.67;12.93;;;16.80;99.90;;;;;;5144620;27;20078;-84
2023/06/22 01:31:23;;;;;;;21.17;12.77;;;16.80;99.90;;;;;;5150576;27;20135;-84
2023/06/22 01:33:54;;;;;;;18.10;12.40;;;16.80;99.90;;;;;;5150257;28;20735;-84
2023/06/22 01:36:23;;;;;;;19.40;12.48;;;16.80;99.90;;;;;;5167226;28;20051;-84
2023/06/22 01:38:52;;;;;;;21.08;14.75;;;16.80;99.90;;;;;;5150087;28;20118;-84
2023/06/22 01:41:20;;;;;;;21.98;14.80;;;16.70;99.90;;;;;;5150109;28;20043;-84
2023/06/22 01:43:49;;;;;;;23.45;15.70;;;16.70;99.90;;;;;;5167380;28;20027;-84
2023/06/22 01:46:19;;;;;;;21.38;14.57;;;16.70;99.90;;;;;;5167337;27;20402;-84
2023/06/22 01:48:46;;;;;;;22.10;13.77;;;16.70;99.90;;;;;;5129893;27;20044;-84
2023/06/22 01:51:14;;;;;;;20.95;14.75;;;16.70;99.90;;;;;;5169442;27;20043;-84
2023/06/22 01:53:41;;;;;;;24.08;17.13;;;16.70;99.90;;;;;;5170238;27;20046;-84
2023/06/22 01:56:08;;;;;;;26.83;17.65;;;16.70;99.90;;;;;;5133146;27;20031;-83
2023/06/22 01:58:42;;;;;;;29.10;19.98;;;16.70;99.90;;;;;;5153394;27;20049;-84
2023/06/22 02:01:13;;;;;;;28.52;19.17;;;16.60;99.90;;;;;;5175155;27;20410;-84
2023/06/22 02:04:03;;;;;;;26.98;18.70;;;16.60;99.90;;;;;;5174879;27;20035;-84
2023/06/22 02:06:37;;;;;;;28.20;18.75;;;16.70;99.90;;;;;;5171126;27;20039;-84
2023/06/22 02:09:11;;;;;;;28.60;19.63;;;16.60;99.90;;;;;;5147416;28;20854;-84
2023/06/22 02:11:42;;;;;;;27.38;19.77;;;16.60;99.90;;;;;;5133622;28;20484;-84
2023/06/22 02:14:10;;;;;;;29.30;20.10;;;16.60;99.90;;;;;;5133400;28;20046;-84
2023/06/22 02:16:37;;;;;;;27.20;19.00;;;16.60;99.90;;;;;;5133350;28;20104;-84
2023/06/22 02:19:06;;;;;;;25.85;18.50;;;16.60;99.90;;;;;;5099975;28;20092;-84
2023/06/22 02:21:32;;;;;;;28.98;18.55;;;16.60;99.90;;;;;;5100114;28;20047;-84
2023/06/22 02:23:59;;;;;;;25.48;16.85;;;16.60;99.90;;;;;;5133653;28;20065;-84
2023/06/22 02:26:27;;;;;;;24.73;16.48;;;16.60;99.90;;;;;;5116258;28;20040;-84
2023/06/22 02:28:54;;;;;;;27.10;17.23;;;16.60;99.90;;;;;;5133215;28;20054;-84
2023/06/22 02:31:20;;;;;;;25.80;16.83;;;16.60;99.90;;;;;;5133369;28;20040;-84
2023/06/22 02:33:48;;;;;;;23.05;16.70;;;16.60;99.90;;;;;;5099542;28;20088;-84
2023/06/22 02:36:15;;;;;;;24.85;17.27;;;16.60;99.90;;;;;;5099595;28;20044;-84
2023/06/22 02:38:48;;;;;;;24.80;17.52;;;16.60;99.90;;;;;;5126977;27;20088;-84
2023/06/22 02:41:18;;;;;;;25.83;18.15;;;16.50;99.90;;;;;;5153251;27;20404;-84
2023/06/22 02:43:45;;;;;;;28.02;18.20;;;16.60;99.90;;;;;;5137116;27;20031;-83
2023/06/22 02:46:13;;;;;;;28.67;17.85;;;16.50;99.90;;;;;;5119958;27;20129;-84
2023/06/22 02:48:40;;;;;;;24.75;17.02;;;16.50;99.90;;;;;;5144051;28;20071;-84
2023/06/22 02:51:07;;;;;;;27.50;17.30;;;16.50;99.90;;;;;;5132682;28;20445;-84
2023/06/22 02:53:34;;;;;;;25.13;17.50;;;16.40;99.90;;;;;;5134313;27;20046;-83
2023/06/22 02:56:07;;;;;;;26.10;17.60;;;16.40;99.90;;;;;;5156545;27;20099;-84
2023/06/22 02:58:38;;;;;;;25.77;16.80;;;16.40;99.90;;;;;;5149210;28;20028;-84
2023/06/22 03:01:05;;;;;;;27.73;18.33;;;16.40;99.90;;;;;;5099985;28;20553;-84
2023/06/22 03:03:32;;;;;;;26.40;17.38;;;16.40;99.90;;;;;;5099135;28;20038;-84
2023/06/22 03:06:01;;;;;;;24.40;17.02;;;16.40;99.90;;;;;;5115406;28;20126;-84
2023/06/22 03:08:29;;;;;;;24.95;17.02;;;16.40;99.90;;;;;;5115302;28;20039;-84
2023/06/22 03:10:58;;;;;;;24.92;17.13;;;16.30;99.90;;;;;;5132230;28;20541;-84
2023/06/22 03:13:26;;;;;;;32.13;20.02;;;16.40;99.90;;;;;;5098779;28;20047;-84
2023/06/22 03:15:53;;;;;;;32.05;20.77;;;16.30;99.90;;;;;;5114783;28;20043;-83
2023/06/22 03:18:22;;;;;;;32.90;21.45;;;16.30;99.90;;;;;;5098713;28;20518;-84
2023/06/22 03:20:48;;;;;;;30.75;20.95;;;16.30;99.90;;;;;;5115946;27;20039;-84
2023/06/22 03:23:15;;;;;;;33.30;23.48;;;16.20;99.90;;;;;;5113462;28;20180;-83
2023/06/22 03:25:44;;;;;;;36.42;23.80;;;16.40;99.90;;;;;;5115091;28;20047;-84
2023/06/22 03:28:11;;;;;;;38.25;25.70;;;16.40;99.90;;;;;;5099237;28;20126;-84
2023/06/22 03:30:38;;;;;;;34.45;24.77;;;16.40;99.90;;;;;;5115144;28;20189;-84
2023/06/22 03:33:04;;;;;;;33.35;23.27;;;16.40;99.90;;;;;;5116719;27;20048;-84
2023/06/22 03:35:31;;;;;;;40.78;25.60;;;16.40;99.90;;;;;;5118327;27;20468;-84
2023/06/22 03:37:58;;;;;;;33.97;24.60;;;16.50;99.90;;;;;;5135068;27;20039;-84
2023/06/22 03:40:24;;;;;;;41.55;25.67;;;16.50;99.90;;;;;;5152386;27;20043;-84
2023/06/22 03:42:51;;;;;;;36.85;24.30;;;16.50;99.90;;;;;;5126820;27;20022;-84
2023/06/22 03:45:18;;;;;;;39.78;26.25;;;16.50;99.90;;;;;;5117893;28;20043;-84
2023/06/22 03:47:44;;;;;;;43.20;27.70;;;16.60;99.90;;;;;;5114337;28;20122;-84
2023/06/22 03:50:11;;;;;;;37.88;26.38;;;16.60;99.90;;;;;;5148954;27;20046;-84
2023/06/22 03:52:38;;;;;;;36.03;25.40;;;16.60;99.90;;;;;;5129101;27;20035;-84
2023/06/22 03:55:05;;;;;;;38.63;25.05;;;16.70;99.90;;;;;;5113377;27;20087;-84
2023/06/22 03:57:32;;;;;;;40.03;26.02;;;16.60;99.90;;;;;;5168626;27;20035;-84
2023/06/22 04:00:00;;;;;;;39.28;25.73;;;16.60;99.90;;;;;;5135102;27;20092;-84
2023/06/22 04:02:27;;;;;;;42.10;25.92;;;16.70;99.90;;;;;;5151516;27;20106;-84
2023/06/22 04:04:53;;;;;;;38.78;24.63;;;16.70;99.90;;;;;;5116463;27;20046;-83
2023/06/22 04:07:20;;;;;;;38.05;26.35;;;16.70;99.90;;;;;;5121547;27;20073;-84
2023/06/22 04:09:47;;;;;;;37.42;26.15;;;16.70;99.90;;;;;;5117585;27;20399;-84
2023/06/22 04:12:14;;;;;;;36.83;25.45;;;16.80;99.90;;;;;;5135081;27;20069;-84
2023/06/22 04:14:41;;;;;;;38.20;25.23;;;16.80;99.90;;;;;;5117634;27;20035;-84
2023/06/22 04:17:07;;;;;;;39.03;25.35;;;16.90;99.90;;;;;;5127574;28;20044;-84
2023/06/22 04:19:34;;;;;;;39.60;26.13;;;16.90;99.90;;;;;;5113165;28;20096;-84
2023/06/22 04:22:01;;;;;;;39.28;25.55;;;17.00;99.90;;;;;;5113728;28;20047;-84
2023/06/22 04:24:28;;;;;;;37.72;25.38;;;17.00;99.90;;;;;;5163270;27;20401;-84
2023/06/22 04:26:54;;;;;;;38.15;26.13;;;17.10;99.90;;;;;;5132314;27;20046;-84
2023/06/22 04:29:28;;;;;;;40.85;26.83;;;17.20;99.90;;;;;;5141375;27;20076;-84
2023/06/22 04:31:58;;;;;;;37.08;26.00;;;17.20;99.90;;;;;;5147947;27;20127;-84
2023/06/22 04:34:28;;;;;;;40.85;25.25;;;17.20;99.90;;;;;;5155507;27;20051;-84
2023/06/22 04:36:55;;;;;;;37.03;25.35;;;17.30;99.90;;;;;;5136131;28;20104;-84
2023/06/22 04:39:21;;;;;;;39.50;25.10;;;17.30;99.90;;;;;;5113568;28;20039;-83
2023/06/22 04:41:48;;;;;;;34.50;24.63;;;17.30;99.90;;;;;;5113710;28;20840;-84
2023/06/22 04:44:23;;;;;;;38.88;25.00;;;17.40;99.90;;;;;;5133215;27;20058;-84
2023/06/22 04:46:59;;;;;;;33.70;24.50;;;17.40;99.90;;;;;;5171892;27;20095;-84
2023/06/22 04:49:33;;;;;;;36.35;24.50;;;17.40;99.90;;;;;;5172048;27;20547;-84
2023/06/22 04:52:01;;;;;;;36.22;23.95;;;17.40;99.90;;;;;;5155705;27;20073;-84
2023/06/22 04:54:28;;;;;;;36.55;23.25;;;17.40;99.90;;;;;;5178044;27;20039;-84
2023/06/22 04:56:57;;;;;;;38.67;23.48;;;17.40;99.90;;;;;;5130135;28;20047;-84
2023/06/22 04:59:28;;;;;;;32.28;21.98;;;17.50;99.90;;;;;;5143363;27;20031;-84
2023/06/22 05:01:58;;;;;;;33.28;22.55;;;17.50;99.90;;;;;;5167971;27;20039;-84
2023/06/22 05:04:27;;;;;;;31.88;22.90;;;17.50;99.90;;;;;;5144986;27;20038;-84
2023/06/22 05:06:54;;;;;;;31.02;22.48;;;17.60;99.90;;;;;;5129932;28;20445;-84
2023/06/22 05:09:22;;;;;;;32.88;21.98;;;17.60;99.90;;;;;;5123164;27;20039;-84
2023/06/22 05:11:49;;;;;;;31.77;21.65;;;17.60;99.90;;;;;;5154406;27;20041;-84
2023/06/22 05:14:15;;;;;;;31.45;22.00;;;17.70;99.90;;;;;;5154388;27;20043;-84
2023/06/22 05:16:43;;;;;;;33.70;21.67;;;17.70;99.90;;;;;;5154113;27;20038;-84
2023/06/22 05:19:10;;;;;;;29.65;20.20;;;17.80;99.90;;;;;;5148720;27;20487;-84
2023/06/22 05:21:37;;;;;;;29.75;20.02;;;17.80;99.90;;;;;;5153869;27;20038;-84
2023/06/22 05:24:04;;;;;;;28.40;20.35;;;17.90;99.90;;;;;;5150013;27;20039;-84
2023/06/22 05:26:32;;;;;;;28.58;19.70;;;17.90;99.90;;;;;;5161331;27;20119;-84
2023/06/22 05:29:01;;;;;;;30.52;18.73;;;17.90;99.90;;;;;;5156984;27;20482;-84
2023/06/22 05:31:28;;;;;;;25.15;17.58;;;17.90;99.90;;;;;;5124294;27;20490;-84
2023/06/22 05:33:56;;;;;;;27.48;17.98;;;18.00;99.90;;;;;;5150891;27;20125;-84
2023/06/22 05:36:25;;;;;;;25.33;18.35;;;18.10;99.90;;;;;;5149872;28;20134;-84
2023/06/22 05:38:53;;;;;;;25.75;18.05;;;18.10;99.90;;;;;;5128059;28;20510;-84
2023/06/22 05:41:19;;;;;;;20.98;16.63;;;18.10;99.90;;;;;;5112998;28;20036;-84
2023/06/22 05:43:46;;;;;;;20.77;15.25;;;18.10;99.90;;;;;;5143578;28;20053;-84
2023/06/22 05:46:15;;;;;;;22.23;15.98;;;18.10;99.90;;;;;;5123071;27;20039;-84
2023/06/22 05:48:42;;;;;;;20.65;15.43;;;18.10;99.90;;;;;;5150618;28;20043;-84
2023/06/22 05:51:09;;;;;;;20.25;14.65;;;18.20;99.90;;;;;;5116569;28;20125;-84
2023/06/22 05:53:35;;;;;;;19.58;14.52;;;18.20;99.90;;;;;;5150598;28;20070;-84
2023/06/22 05:56:02;;;;;;;18.38;13.73;;;18.20;99.90;;;;;;5129435;28;20052;-84
2023/06/22 05:58:29;;;;;;;18.65;14.32;;;18.20;99.90;;;;;;5120164;28;20067;-84
2023/06/22 06:00:56;;;;;;;19.88;14.18;;;18.30;99.90;;;;;;5129826;28;20462;-84
2023/06/22 06:03:22;;;;;;;19.05;13.70;;;18.30;99.90;;;;;;5113212;28;20039;-84
2023/06/22 06:05:49;;;;;;;20.00;13.93;;;18.40;99.90;;;;;;5112847;28;20067;-84
2023/06/22 06:08:16;;;;;;;19.08;13.50;;;18.40;99.90;;;;;;5129800;28;20040;-84
2023/06/22 06:10:42;;;;;;;18.08;13.35;;;18.60;99.90;;;;;;5112999;28;20043;-84
2023/06/22 06:13:09;;;;;;;22.05;13.95;;;18.60;99.90;;;;;;5112913;28;20035;-84
2023/06/22 06:15:36;;;;;;;19.13;13.55;;;18.70;99.90;;;;;;5112871;28;20043;-84
2023/06/22 06:18:04;;;;;;;20.08;13.77;;;18.80;99.90;;;;;;5113108;28;20035;-84
2023/06/22 06:20:32;;;;;;;18.98;13.50;;;18.80;99.90;;;;;;5113290;28;20031;-84
2023/06/22 06:22:58;;;;;;;17.10;13.55;;;18.90;99.90;;;;;;5132697;28;20035;-84
2023/06/22 06:25:25;;;;;;;18.65;13.98;;;19.00;99.90;;;;;;5134473;28;20119;-84
2023/06/22 06:27:54;;;;;;;18.40;13.45;;;19.00;99.90;;;;;;5129197;28;20042;-84
2023/06/22 06:30:22;;;;;;;15.55;13.02;;;19.10;99.90;;;;;;5156705;28;20048;-83
2023/06/22 06:32:50;;;;;;;16.40;12.77;;;19.10;99.90;;;;;;5139260;28;20136;-86
2023/06/22 06:35:17;;;;;;;15.60;12.43;;;19.10;99.90;;;;;;5129440;28;20045;-87
2023/06/22 06:37:47;;;;;;;16.05;12.65;;;19.20;99.90;;;;;;5130017;28;20047;-87
2023/06/22 06:40:19;;;;;;;18.20;13.07;;;19.30;99.90;;;;;;5147140;28;20036;-87
2023/06/22 06:42:47;;;;;;;14.90;11.68;;;19.40;99.90;;;;;;5147405;28;20066;-87
2023/06/22 06:45:19;;;;;;;16.50;11.63;;;19.50;99.90;;;;;;5133894;28;20047;-87
2023/06/22 06:47:46;;;;;;;17.15;12.57;;;19.60;99.90;;;;;;5133909;28;20142;-88
2023/06/22 06:50:13;;;;;;;16.40;12.10;;;19.70;99.90;;;;;;5151273;28;20074;-87
2023/06/22 06:52:40;;;;;;;16.23;12.20;;;19.70;99.90;;;;;;5144434;27;20023;-88
2023/06/22 06:55:09;;;;;;;15.90;12.15;;;19.80;99.90;;;;;;5111588;28;20072;-87
2023/06/22 06:57:37;;;;;;;15.32;10.77;;;19.90;99.90;;;;;;5144645;28;20519;-89
2023/06/22 07:00:13;;;;;;;14.55;10.75;;;20.00;99.90;;;;;;5110481;28;20224;-86
2023/06/22 07:02:41;;;;;;;17.33;11.93;;;20.00;99.90;;;;;;5117863;28;20508;-87
2023/06/22 07:05:08;;;;;;;14.63;10.27;;;20.10;99.90;;;;;;5121233;28;20043;-86
2023/06/22 07:07:35;;;;;;;14.18;9.95;;;20.20;99.90;;;;;;5116357;28;20503;-87
2023/06/22 07:10:02;;;;;;;14.70;10.00;;;20.30;99.90;;;;;;5134819;28;20042;-87
2023/06/22 07:12:29;;;;;;;14.35;10.82;;;20.40;99.90;;;;;;5116936;27;20130;-88
2023/06/22 07:15:07;;;;;;;11.82;9.30;;;20.60;99.90;;;;;;5136820;27;20074;-88
2023/06/22 07:17:35;;;;;;;13.57;10.32;;;20.70;99.90;;;;;;5136383;27;20050;-88
2023/06/22 07:20:07;;;;;;;13.68;10.02;;;20.80;99.90;;;;;;5136632;27;20035;-85
2023/06/22 07:22:35;;;;;;;15.35;9.98;;;21.00;99.90;;;;;;5152793;27;20092;-85
2023/06/22 07:25:08;;;;;;;12.02;8.85;;;21.20;99.90;;;;;;5121257;27;20031;-85
2023/06/22 07:27:42;;;;;;;13.98;9.73;;;21.10;99.90;;;;;;5123425;27;20471;-85
2023/06/22 07:30:10;;;;;;;13.98;9.95;;;21.20;99.90;;;;;;5137670;27;20491;-85
2023/06/22 07:32:36;;;;;;;15.85;10.23;;;21.20;99.90;;;;;;5154996;27;20106;-85
2023/06/22 07:35:04;;;;;;;14.05;9.80;;;21.30;99.90;;;;;;5121893;27;20171;-95
2023/06/22 07:37:33;;;;;;;11.68;9.05;;;21.40;99.90;;;;;;5154849;27;20051;-88
2023/06/22 07:39:59;;;;;;;12.63;8.85;;;21.50;99.90;;;;;;5153341;27;20502;-88
2023/06/22 07:42:27;;;;;;;16.00;8.80;;;21.60;99.90;;;;;;5116241;27;20036;-87
2023/06/22 07:44:54;;;;;;;10.63;7.63;;;21.70;99.90;;;;;;5134527;27;20115;-87
2023/06/22 07:47:25;;;;;;;11.05;7.78;;;21.90;99.90;;;;;;5135823;27;20039;-87
2023/06/22 07:49:54;;;;;;;11.57;7.10;;;22.00;99.90;;;;;;5136297;27;20050;-87
2023/06/22 07:52:21;;;;;;;9.43;7.13;;;22.10;99.90;;;;;;5120114;27;20038;-86
2023/06/22 07:54:48;;;;;;;10.40;6.45;;;22.10;99.90;;;;;;5153109;27;20035;-87
2023/06/22 07:57:14;;;;;;;8.95;5.90;;;22.20;99.90;;;;;;5118925;27;20046;-87
2023/06/22 07:59:41;;;;;;;10.73;6.68;;;22.30;99.90;;;;;;5135504;27;20046;-87
2023/06/22 08:02:09;;;;;;;10.52;6.88;;;22.40;99.90;;;;;;5115498;28;20572;-87
2023/06/22 08:04:35;;;;;;;8.68;6.13;;;22.50;99.90;;;;;;5118649;27;20750;-87
2023/06/22 08:07:03;;;;;;;8.88;6.22;;;22.50;99.90;;;;;;5106894;27;20031;-87
2023/06/22 08:09:31;;;;;;;10.32;6.65;;;22.50;99.90;;;;;;5112640;27;20042;-87
2023/06/22 08:11:59;;;;;;;10.07;7.05;;;22.60;99.90;;;;;;5135564;27;20035;-88
2023/06/22 08:14:26;;;;;;;10.82;6.78;;;22.70;99.90;;;;;;5152422;27;20140;-87
2023/06/22 08:16:53;;;;;;;6.57;5.05;;;22.70;99.90;;;;;;5135930;27;20043;-87
2023/06/22 08:19:20;;;;;;;10.57;6.50;;;22.80;99.90;;;;;;5118878;27;20126;-87
2023/06/22 08:21:47;;;;;;;7.10;5.22;;;22.90;99.90;;;;;;5152590;27;20037;-87
2023/06/22 08:24:14;;;;;;;9.45;5.72;;;22.90;99.90;;;;;;5135057;27;20118;-86
2023/06/22 08:26:40;;;;;;;10.23;5.35;;;23.00;99.90;;;;;;5117720;27;20134;-87
2023/06/22 08:29:07;;;;;;;7.45;5.03;;;23.10;99.90;;;;;;5114764;28;20047;-87
2023/06/22 08:31:34;;;;;;;8.13;5.38;;;23.30;99.90;;;;;;5114330;28;20035;-86
2023/06/22 08:34:01;;;;;;;9.55;4.88;;;23.40;99.90;;;;;;5114562;28;20040;-87
2023/06/22 08:36:32;;;;;;;8.90;5.20;;;23.40;99.90;;;;;;5114088;28;20035;-87
2023/06/22 08:39:01;;;;;;;7.07;4.25;;;23.40;99.90;;;;;;5115483;28;20036;-86
2023/06/22 08:41:28;;;;;;;6.20;4.65;;;23.50;99.90;;;;;;5147873;28;20054;-86
2023/06/22 08:43:55;;;;;;;6.72;4.55;;;23.40;99.90;;;;;;5131586;28;20511;-87
2023/06/22 08:46:29;;;;;;;7.28;4.40;;;23.60;99.90;;;;;;5131032;28;20470;-88
2023/06/22 08:49:00;;;;;;;8.70;5.40;;;23.70;99.90;;;;;;5130832;28;20035;-87
2023/06/22 08:51:27;;;;;;;8.48;5.32;;;23.80;99.90;;;;;;5131610;28;20040;-87
2023/06/22 08:53:55;;;;;;;9.95;5.20;;;23.80;99.90;;;;;;5113757;28;20046;-85
2023/06/22 08:56:22;;;;;;;7.65;5.07;;;23.90;99.90;;;;;;5130155;28;20044;-80
2023/06/22 08:58:49;;;;;;;8.95;4.57;;;24.00;99.90;;;;;;5130225;28;20032;-83
2023/06/22 09:01:15;;;;;;;7.57;4.75;;;24.10;99.90;;;;;;5113506;28;20036;-84
2023/06/22 09:03:42;;;;;;;9.93;5.03;;;24.20;99.90;;;;;;5096840;28;20044;-84
2023/06/22 09:06:09;;;;;;;8.27;5.13;;;24.30;99.90;;;;;;5130471;28;20039;-85
2023/06/22 09:08:36;;;;;;;6.15;4.50;;;24.40;99.90;;;;;;5130088;28;20081;-84
2023/06/22 09:11:03;;;;;;;9.02;4.28;;;24.40;99.90;;;;;;5113342;28;20525;-84
2023/06/22 09:13:31;;;;;;;7.70;4.53;;;24.50;99.90;;;;;;5096652;28;20126;-84
2023/06/22 09:15:58;;;;;;;7.45;5.07;;;24.50;99.90;;;;;;5130288;28;20044;-84
2023/06/22 09:18:24;;;;;;;7.88;4.35;;;24.40;99.90;;;;;;5096848;28;20126;-83
2023/06/22 09:20:51;;;;;;;5.20;3.70;;;24.50;99.90;;;;;;5113171;28;20032;-84
2023/06/22 09:23:21;;;;;;;8.55;4.72;;;24.60;99.90;;;;;;5113132;28;20039;-84
2023/06/22 09:25:47;;;;;;;8.02;3.85;;;24.80;99.90;;;;;;5129620;28;20047;-84
2023/06/22 09:28:15;;;;;;;7.78;3.60;;;24.90;99.90;;;;;;5113521;28;20444;-84
2023/06/22 09:30:44;;;;;;;6.15;4.20;;;24.90;99.90;;;;;;5096526;28;20572;-84
2023/06/22 09:33:11;;;;;;;7.78;4.60;;;25.00;99.90;;;;;;5129840;28;20508;-83
2023/06/22 09:35:37;;;;;;;8.40;5.38;;;25.00;99.90;;;;;;5112629;28;20078;-84
2023/06/22 09:38:04;;;;;;;8.90;4.95;;;25.10;99.90;;;;;;5096669;28;20084;-83
2023/06/22 09:40:35;;;;;;;10.73;4.40;;;25.10;99.90;;;;;;5096222;28;20031;-83
2023/06/22 09:43:02;;;;;;;7.22;4.20;;;25.10;99.90;;;;;;5116772;28;20039;-83
2023/06/22 09:45:28;;;;;;;7.18;4.10;;;25.10;99.90;;;;;;5096284;28;20129;-83
2023/06/22 09:47:55;;;;;;;7.75;4.10;;;25.30;99.90;;;;;;5129980;28;20057;-83
2023/06/22 09:50:22;;;;;;;6.57;4.53;;;25.30;99.90;;;;;;5096598;28;20392;-83
2023/06/22 09:52:54;;;;;;;7.40;4.55;;;25.40;99.90;;;;;;5136205;28;20058;-83
2023/06/22 09:55:21;;;;;;;8.30;5.10;;;25.40;99.90;;;;;;5130700;28;20040;-83
2023/06/22 09:57:48;;;;;;;6.10;4.20;;;25.50;99.90;;;;;;5129519;28;20043;-82
2023/06/22 10:00:18;;;;;;;8.55;4.75;;;25.50;99.90;;;;;;5112785;28;20039;-83
2023/06/22 10:02:46;;;;;;;6.70;4.03;;;25.60;99.90;;;;;;5112602;28;20040;-83
2023/06/22 10:05:19;;;;;;;7.40;3.72;;;25.60;99.90;;;;;;5116195;28;20035;-82
2023/06/22 10:07:46;;;;;;;7.65;4.20;;;25.60;99.90;;;;;;5133399;28;20064;-81
2023/06/22 10:10:13;;;;;;;9.10;4.35;;;25.80;99.90;;;;;;5107244;28;20052;-83
2023/06/22 10:12:43;;;;;;;6.25;3.85;;;25.90;99.90;;;;;;5113087;28;20406;-84
2023/06/22 10:15:10;;;;;;;6.45;4.28;;;26.00;99.90;;;;;;5155559;27;20592;-84
2023/06/22 10:17:37;;;;;;;6.90;3.97;;;26.10;99.90;;;;;;5120331;28;20088;-83
2023/06/22 10:20:12;;;;;;;7.95;4.50;;;26.20;99.90;;;;;;5130254;27;20051;-83
2023/06/22 10:22:40;;;;;;;8.85;5.28;;;26.30;99.90;;;;;;5115256;28;20032;-83
2023/06/22 10:25:08;;;;;;;8.07;4.90;;;26.30;99.90;;;;;;5145422;27;20027;-83
2023/06/22 10:27:40;;;;;;;8.32;4.30;;;26.30;99.90;;;;;;5112907;28;20043;-83
2023/06/22 10:30:09;;;;;;;6.97;4.75;;;26.30;99.90;;;;;;5119637;28;20043;-83
2023/06/22 10:32:38;;;;;;;7.63;4.28;;;26.40;99.90;;;;;;5130693;28;20040;-83
2023/06/22 10:35:05;;;;;;;8.10;4.60;;;26.50;99.90;;;;;;5150078;27;21305;-83
2023/06/22 10:37:32;;;;;;;8.25;5.03;;;26.50;99.90;;;;;;5148315;27;20042;-83
2023/06/22 10:39:59;;;;;;;8.23;3.78;;;26.60;99.90;;;;;;5173342;27;20046;-83
2023/06/22 10:42:26;;;;;;;8.38;4.22;;;26.70;99.90;;;;;;5134331;27;20082;-83
2023/06/22 10:44:52;;;;;;;7.38;3.97;;;26.70;99.90;;;;;;5128014;27;20483;-83
2023/06/22 10:47:19;;;;;;;8.45;4.30;;;26.70;99.90;;;;;;5117204;28;20485;-83
2023/06/22 10:49:46;;;;;;;6.53;4.40;;;26.80;99.90;;;;;;5120065;27;20486;-84
2023/06/22 10:52:12;;;;;;;7.00;4.35;;;26.80;99.90;;;;;;5134992;27;20042;-84
2023/06/22 10:54:39;;;;;;;5.88;4.18;;;26.90;99.90;;;;;;5121407;28;20123;-84
2023/06/22 10:57:06;;;;;;;7.53;4.93;;;26.80;99.90;;;;;;5101746;28;20038;-84
2023/06/22 10:59:33;;;;;;;6.72;4.53;;;26.80;99.90;;;;;;5131299;28;20096;-84
2023/06/22 11:01:59;;;;;;;9.18;4.93;;;26.90;99.90;;;;;;5106593;27;20039;-84
2023/06/22 11:04:29;;;;;;;10.02;4.90;;;26.90;99.90;;;;;;5141480;28;20408;-84
2023/06/22 11:06:56;;;;;;;9.05;4.80;;;27.00;99.90;;;;;;5120023;28;20040;-84
2023/06/22 11:09:23;;;;;;;9.65;4.80;;;27.00;99.90;;;;;;5133016;28;20502;-84
2023/06/22 11:11:53;;;;;;;8.10;4.65;;;27.00;99.90;;;;;;5115500;28;20046;-84
2023/06/22 11:14:20;;;;;;;8.15;4.78;;;27.00;99.90;;;;;;5118072;27;20380;-84
2023/06/22 11:16:47;;;;;;;6.63;4.30;;;27.20;99.90;;;;;;5167335;27;20035;-84
2023/06/22 11:19:14;;;;;;;7.43;5.00;;;27.30;99.90;;;;;;5104917;27;20467;-84
2023/06/22 11:21:40;;;;;;;8.40;4.88;;;27.30;99.90;;;;;;5127033;28;20036;-84
2023/06/22 11:24:07;;;;;;;6.53;4.00;;;27.20;99.90;;;;;;5140420;28;20035;-84
2023/06/22 11:26:35;;;;;;;7.88;4.90;;;27.30;99.90;;;;;;5098469;28;20523;-84
2023/06/22 11:29:05;;;;;;;8.02;5.57;;;27.30;99.90;;;;;;5104147;28;20051;-84
2023/06/22 11:31:32;;;;;;;7.40;4.95;;;27.30;99.90;;;;;;5156002;27;20121;-84
2023/06/22 11:33:59;;;;;;;8.65;4.55;;;27.20;99.90;;;;;;5126650;28;20040;-84
2023/06/22 11:36:26;;;;;;;8.68;5.28;;;27.10;99.90;;;;;;5115086;27;20111;-86
2023/06/22 11:38:53;;;;;;;8.15;5.28;;;26.90;99.90;;;;;;5114243;28;20043;-85
2023/06/22 11:41:20;;;;;;;9.27;4.55;;;26.90;99.90;;;;;;5145243;28;20035;-85
2023/06/22 11:43:47;;;;;;;8.05;4.28;;;26.80;99.90;;;;;;5115411;28;20436;-86
2023/06/22 11:46:14;;;;;;;6.15;4.22;;;26.60;99.90;;;;;;5115293;28;20039;-86
2023/06/22 11:48:41;;;;;;;7.13;4.45;;;26.60;99.90;;;;;;5140928;28;20495;-86
2023/06/22 11:51:08;;;;;;;8.00;5.32;;;26.60;99.90;;;;;;5148826;28;20077;-86
2023/06/22 11:53:35;;;;;;;7.55;4.60;;;26.60;99.90;;;;;;5114999;28;20058;-86
2023/06/22 11:56:01;;;;;;;7.55;4.38;;;26.60;99.90;;;;;;5146708;28;20048;-87
2023/06/22 11:58:28;;;;;;;8.23;5.10;;;26.70;99.90;;;;;;5140142;27;20035;-87
2023/06/22 12:00:55;;;;;;;7.75;4.70;;;26.90;99.90;;;;;;5118377;27;20034;-86
2023/06/22 12:03:21;;;;;;;9.13;4.53;;;27.00;99.90;;;;;;5152580;27;20038;-86
2023/06/22 12:05:51;;;;;;;7.60;4.68;;;27.00;99.90;;;;;;5134984;27;20126;-85
2023/06/22 12:08:18;;;;;;;8.00;4.88;;;27.00;99.90;;;;;;5149783;27;20039;-85
2023/06/22 12:10:45;;;;;;;8.05;4.63;;;26.90;99.90;;;;;;5117670;28;20060;-83
2023/06/22 12:13:12;;;;;;;9.18;5.90;;;27.00;99.90;;;;;;5097844;28;20126;-83
2023/06/22 12:15:39;;;;;;;9.10;5.47;;;26.90;99.90;;;;;;5114543;28;20047;-84
2023/06/22 12:18:05;;;;;;;7.25;4.80;;;26.90;99.90;;;;;;5146370;27;20042;-83
2023/06/22 12:20:32;;;;;;;7.72;5.20;;;26.90;99.90;;;;;;5117920;27;20035;-84
2023/06/22 12:22:59;;;;;;;7.75;4.95;;;26.80;99.90;;;;;;5134332;27;20065;-83
2023/06/22 12:25:25;;;;;;;8.65;4.90;;;26.70;99.90;;;;;;5134466;27;20046;-84
2023/06/22 12:27:53;;;;;;;7.97;4.80;;;26.60;99.90;;;;;;5114654;28;20032;-83
2023/06/22 12:30:20;;;;;;;7.40;4.95;;;26.60;99.90;;;;;;5098078;28;20475;-84
2023/06/22 12:32:47;;;;;;;8.30;4.70;;;26.50;99.90;;;;;;5097778;28;20028;-84
2023/06/22 12:35:13;;;;;;;7.90;4.38;;;26.40;99.90;;;;;;5097624;28;20059;-84
2023/06/22 12:37:42;;;;;;;6.22;4.47;;;26.50;99.90;;;;;;5113875;28;20142;-83
2023/06/22 12:40:09;;;;;;;11.15;4.82;;;26.50;99.90;;;;;;5114147;28;20827;-83